sensor_id;sensor_type;location;lat;lon;timestamp;P1;durP1;ratioP1;P2;durP2;ratioP2
13660;SDS011;6903;49.480;11.102;2023-04-07T00:02:16;10.73;;;8.20;;
13660;SDS011;6903;49.480;11.102;2023-04-07T00:04:41;13.27;;;8.90;;
13660;SDS011;6903;49.480;11.102;2023-04-07T00:07:07;12.53;;;8.97;;
13660;SDS011;6903;49.480;11.102;2023-04-07T00:09:32;12.83;;;8.63;;
13660;SDS011;6903;49.480;11.102;2023-04-07T00:11:57;11.93;;;8.63;;
13660;SDS011;6903;49.480;11.102;2023-04-07T00:14:25;12.37;;;8.90;;
13660;SDS011;6903;49.480;11.102;2023-04-07T00:16:51;11.23;;;9.00;;
13660;SDS011;6903;49.480;11.102;2023-04-07T00:19:16;13.07;;;9.30;;
13660;SDS011;6903;49.480;11.102;2023-04-07T00:21:41;11.10;;;8.00;;
13660;SDS011;6903;49.480;11.102;2023-04-07T00:24:06;12.17;;;8.93;;
13660;SDS011;6903;49.480;11.102;2023-04-07T00:26:32;11.27;;;8.80;;
13660;SDS011;6903;49.480;11.102;2023-04-07T00:28:57;12.37;;;8.97;;
13660;SDS011;6903;49.480;11.102;2023-04-07T00:31:23;12.47;;;8.73;;
13660;SDS011;6903;49.480;11.102;2023-04-07T00:33:48;12.70;;;8.97;;
13660;SDS011;6903;49.480;11.102;2023-04-07T00:36:14;11.47;;;9.33;;
13660;SDS011;6903;49.480;11.102;2023-04-07T00:38:39;11.70;;;8.60;;
13660;SDS011;6903;49.480;11.102;2023-04-07T00:41:05;11.23;;;9.07;;
13660;SDS011;6903;49.480;11.102;2023-04-07T00:43:30;10.67;;;8.57;;
13660;SDS011;6903;49.480;11.102;2023-04-07T00:45:56;11.27;;;8.90;;
13660;SDS011;6903;49.480;11.102;2023-04-07T00:48:21;11.33;;;9.20;;
13660;SDS011;6903;49.480;11.102;2023-04-07T00:50:47;10.70;;;8.93;;
13660;SDS011;6903;49.480;11.102;2023-04-07T00:53:12;15.13;;;10.37;;
13660;SDS011;6903;49.480;11.102;2023-04-07T00:55:37;12.77;;;9.93;;
13660;SDS011;6903;49.480;11.102;2023-04-07T00:58:03;10.87;;;9.33;;
13660;SDS011;6903;49.480;11.102;2023-04-07T01:00:30;13.90;;;9.53;;
13660;SDS011;6903;49.480;11.102;2023-04-07T01:03:00;13.53;;;9.63;;
13660;SDS011;6903;49.480;11.102;2023-04-07T01:05:44;12.07;;;9.70;;
13660;SDS011;6903;49.480;11.102;2023-04-07T01:08:20;14.33;;;10.13;;
13660;SDS011;6903;49.480;11.102;2023-04-07T01:10:55;13.30;;;9.97;;
13660;SDS011;6903;49.480;11.102;2023-04-07T01:13:31;11.73;;;9.07;;
13660;SDS011;6903;49.480;11.102;2023-04-07T01:16:03;13.10;;;9.43;;
13660;SDS011;6903;49.480;11.102;2023-04-07T01:18:34;13.40;;;9.13;;
13660;SDS011;6903;49.480;11.102;2023-04-07T01:21:03;12.80;;;8.67;;
13660;SDS011;6903;49.480;11.102;2023-04-07T01:23:43;14.10;;;9.40;;
13660;SDS011;6903;49.480;11.102;2023-04-07T01:26:20;12.63;;;8.90;;
13660;SDS011;6903;49.480;11.102;2023-04-07T01:28:55;12.73;;;9.07;;
13660;SDS011;6903;49.480;11.102;2023-04-07T01:31:45;12.37;;;8.50;;
13660;SDS011;6903;49.480;11.102;2023-04-07T01:34:12;12.43;;;8.37;;
13660;SDS011;6903;49.480;11.102;2023-04-07T01:36:39;14.13;;;8.80;;
13660;SDS011;6903;49.480;11.102;2023-04-07T01:39:06;12.77;;;8.70;;
13660;SDS011;6903;49.480;11.102;2023-04-07T01:41:32;11.97;;;8.83;;
13660;SDS011;6903;49.480;11.102;2023-04-07T01:43:59;14.13;;;8.80;;
13660;SDS011;6903;49.480;11.102;2023-04-07T01:46:25;12.53;;;8.33;;
13660;SDS011;6903;49.480;11.102;2023-04-07T01:48:51;11.47;;;8.27;;
13660;SDS011;6903;49.480;11.102;2023-04-07T01:51:17;12.53;;;7.87;;
13660;SDS011;6903;49.480;11.102;2023-04-07T01:53:44;10.60;;;7.77;;
13660;SDS011;6903;49.480;11.102;2023-04-07T01:56:10;14.47;;;8.90;;
13660;SDS011;6903;49.480;11.102;2023-04-07T01:58:35;11.23;;;8.07;;
13660;SDS011;6903;49.480;11.102;2023-04-07T02:01:01;10.60;;;8.40;;
13660;SDS011;6903;49.480;11.102;2023-04-07T02:06:17;12.50;;;8.80;;
13660;SDS011;6903;49.480;11.102;2023-04-07T02:08:49;12.47;;;9.00;;
13660;SDS011;6903;49.480;11.102;2023-04-07T02:11:19;11.60;;;8.27;;
13660;SDS011;6903;49.480;11.102;2023-04-07T02:13:46;15.43;;;9.00;;
13660;SDS011;6903;49.480;11.102;2023-04-07T02:16:11;11.83;;;8.87;;
13660;SDS011;6903;49.480;11.102;2023-04-07T02:18:38;13.37;;;9.17;;
13660;SDS011;6903;49.480;11.102;2023-04-07T02:21:05;12.40;;;8.53;;
13660;SDS011;6903;49.480;11.102;2023-04-07T02:23:33;11.00;;;8.80;;
13660;SDS011;6903;49.480;11.102;2023-04-07T02:25:59;11.33;;;8.20;;
13660;SDS011;6903;49.480;11.102;2023-04-07T02:28:25;12.47;;;8.90;;
13660;SDS011;6903;49.480;11.102;2023-04-07T02:30:50;10.83;;;8.70;;
13660;SDS011;6903;49.480;11.102;2023-04-07T02:33:15;10.53;;;8.40;;
13660;SDS011;6903;49.480;11.102;2023-04-07T02:35:41;14.67;;;8.63;;
13660;SDS011;6903;49.480;11.102;2023-04-07T02:38:06;10.23;;;8.13;;
13660;SDS011;6903;49.480;11.102;2023-04-07T02:40:31;13.20;;;9.17;;
13660;SDS011;6903;49.480;11.102;2023-04-07T02:42:57;12.50;;;9.00;;
13660;SDS011;6903;49.480;11.102;2023-04-07T02:45:22;11.77;;;8.57;;
13660;SDS011;6903;49.480;11.102;2023-04-07T02:47:48;9.80;;;8.20;;
13660;SDS011;6903;49.480;11.102;2023-04-07T02:50:13;11.90;;;8.43;;
13660;SDS011;6903;49.480;11.102;2023-04-07T02:52:38;10.87;;;8.13;;
13660;SDS011;6903;49.480;11.102;2023-04-07T02:55:04;10.60;;;7.67;;
13660;SDS011;6903;49.480;11.102;2023-04-07T02:57:31;12.00;;;8.40;;
13660;SDS011;6903;49.480;11.102;2023-04-07T02:59:56;10.37;;;7.67;;
13660;SDS011;6903;49.480;11.102;2023-04-07T03:02:22;9.63;;;8.23;;
13660;SDS011;6903;49.480;11.102;2023-04-07T03:04:49;11.57;;;8.17;;
13660;SDS011;6903;49.480;11.102;2023-04-07T03:07:15;9.97;;;8.40;;
13660;SDS011;6903;49.480;11.102;2023-04-07T03:09:40;11.67;;;8.50;;
13660;SDS011;6903;49.480;11.102;2023-04-07T03:12:05;11.80;;;9.37;;
13660;SDS011;6903;49.480;11.102;2023-04-07T03:14:31;11.23;;;8.50;;
13660;SDS011;6903;49.480;11.102;2023-04-07T03:16:56;10.60;;;8.47;;
13660;SDS011;6903;49.480;11.102;2023-04-07T03:19:21;13.00;;;9.70;;
13660;SDS011;6903;49.480;11.102;2023-04-07T03:21:47;13.13;;;9.10;;
13660;SDS011;6903;49.480;11.102;2023-04-07T03:24:12;14.10;;;10.20;;
13660;SDS011;6903;49.480;11.102;2023-04-07T03:26:37;13.77;;;9.00;;
13660;SDS011;6903;49.480;11.102;2023-04-07T03:29:03;12.93;;;11.10;;
13660;SDS011;6903;49.480;11.102;2023-04-07T03:31:28;12.63;;;9.63;;
13660;SDS011;6903;49.480;11.102;2023-04-07T03:33:54;12.87;;;9.33;;
13660;SDS011;6903;49.480;11.102;2023-04-07T03:36:19;13.00;;;9.73;;
13660;SDS011;6903;49.480;11.102;2023-04-07T03:38:46;11.27;;;8.87;;
13660;SDS011;6903;49.480;11.102;2023-04-07T03:41:11;12.07;;;8.30;;
13660;SDS011;6903;49.480;11.102;2023-04-07T03:43:37;10.77;;;8.47;;
13660;SDS011;6903;49.480;11.102;2023-04-07T03:46:02;10.00;;;8.37;;
13660;SDS011;6903;49.480;11.102;2023-04-07T03:48:27;14.63;;;8.77;;
13660;SDS011;6903;49.480;11.102;2023-04-07T03:50:53;10.30;;;8.50;;
13660;SDS011;6903;49.480;11.102;2023-04-07T03:53:18;13.60;;;9.23;;
13660;SDS011;6903;49.480;11.102;2023-04-07T03:55:43;12.07;;;8.40;;
13660;SDS011;6903;49.480;11.102;2023-04-07T03:58:09;14.53;;;9.20;;
13660;SDS011;6903;49.480;11.102;2023-04-07T04:00:35;10.10;;;8.50;;
13660;SDS011;6903;49.480;11.102;2023-04-07T04:03:01;12.37;;;8.37;;
13660;SDS011;6903;49.480;11.102;2023-04-07T04:05:26;9.80;;;7.97;;
13660;SDS011;6903;49.480;11.102;2023-04-07T04:07:52;12.37;;;8.40;;
13660;SDS011;6903;49.480;11.102;2023-04-07T04:10:20;13.87;;;8.80;;
13660;SDS011;6903;49.480;11.102;2023-04-07T04:12:46;10.17;;;8.50;;
13660;SDS011;6903;49.480;11.102;2023-04-07T04:15:12;10.33;;;8.40;;
13660;SDS011;6903;49.480;11.102;2023-04-07T04:17:37;10.03;;;8.73;;
13660;SDS011;6903;49.480;11.102;2023-04-07T04:20:03;11.47;;;8.40;;
13660;SDS011;6903;49.480;11.102;2023-04-07T04:22:29;10.63;;;8.13;;
13660;SDS011;6903;49.480;11.102;2023-04-07T04:24:54;10.87;;;9.00;;
13660;SDS011;6903;49.480;11.102;2023-04-07T04:27:19;13.53;;;8.73;;
13660;SDS011;6903;49.480;11.102;2023-04-07T04:29:45;10.20;;;7.80;;
13660;SDS011;6903;49.480;11.102;2023-04-07T04:32:10;10.73;;;7.80;;
13660;SDS011;6903;49.480;11.102;2023-04-07T04:34:36;11.83;;;7.87;;
13660;SDS011;6903;49.480;11.102;2023-04-07T04:37:01;10.63;;;7.57;;
13660;SDS011;6903;49.480;11.102;2023-04-07T04:39:26;12.00;;;8.53;;
13660;SDS011;6903;49.480;11.102;2023-04-07T04:41:52;11.23;;;8.67;;
13660;SDS011;6903;49.480;11.102;2023-04-07T04:44:17;9.40;;;7.77;;
13660;SDS011;6903;49.480;11.102;2023-04-07T04:46:42;11.53;;;8.40;;
13660;SDS011;6903;49.480;11.102;2023-04-07T04:49:08;11.47;;;8.40;;
13660;SDS011;6903;49.480;11.102;2023-04-07T04:51:33;9.00;;;7.70;;
13660;SDS011;6903;49.480;11.102;2023-04-07T04:53:58;10.70;;;8.30;;
13660;SDS011;6903;49.480;11.102;2023-04-07T04:56:24;12.17;;;8.13;;
13660;SDS011;6903;49.480;11.102;2023-04-07T04:58:50;11.97;;;8.40;;
13660;SDS011;6903;49.480;11.102;2023-04-07T05:01:15;10.10;;;7.77;;
13660;SDS011;6903;49.480;11.102;2023-04-07T05:03:40;11.40;;;8.53;;
13660;SDS011;6903;49.480;11.102;2023-04-07T05:06:06;10.13;;;7.40;;
13660;SDS011;6903;49.480;11.102;2023-04-07T05:08:31;15.07;;;8.03;;
13660;SDS011;6903;49.480;11.102;2023-04-07T05:10:57;10.30;;;7.33;;
13660;SDS011;6903;49.480;11.102;2023-04-07T05:13:22;9.77;;;6.70;;
13660;SDS011;6903;49.480;11.102;2023-04-07T05:15:48;10.93;;;6.70;;
13660;SDS011;6903;49.480;11.102;2023-04-07T05:18:13;8.47;;;6.77;;
13660;SDS011;6903;49.480;11.102;2023-04-07T05:20:38;8.97;;;6.97;;
13660;SDS011;6903;49.480;11.102;2023-04-07T05:23:04;9.47;;;7.37;;
13660;SDS011;6903;49.480;11.102;2023-04-07T05:25:29;8.20;;;6.60;;
13660;SDS011;6903;49.480;11.102;2023-04-07T05:27:55;8.60;;;6.90;;
13660;SDS011;6903;49.480;11.102;2023-04-07T05:30:21;8.40;;;6.80;;
13660;SDS011;6903;49.480;11.102;2023-04-07T05:32:46;7.77;;;6.90;;
13660;SDS011;6903;49.480;11.102;2023-04-07T05:35:12;9.70;;;7.20;;
13660;SDS011;6903;49.480;11.102;2023-04-07T05:37:37;8.10;;;7.03;;
13660;SDS011;6903;49.480;11.102;2023-04-07T05:40:03;9.33;;;7.03;;
13660;SDS011;6903;49.480;11.102;2023-04-07T05:42:28;10.17;;;7.37;;
13660;SDS011;6903;49.480;11.102;2023-04-07T05:44:54;7.93;;;7.03;;
13660;SDS011;6903;49.480;11.102;2023-04-07T05:47:20;9.30;;;7.00;;
13660;SDS011;6903;49.480;11.102;2023-04-07T05:49:45;8.53;;;6.77;;
13660;SDS011;6903;49.480;11.102;2023-04-07T05:52:11;10.53;;;6.73;;
13660;SDS011;6903;49.480;11.102;2023-04-07T05:54:37;8.60;;;7.30;;
13660;SDS011;6903;49.480;11.102;2023-04-07T05:57:04;9.47;;;7.77;;
13660;SDS011;6903;49.480;11.102;2023-04-07T05:59:29;9.37;;;7.10;;
13660;SDS011;6903;49.480;11.102;2023-04-07T06:01:55;10.13;;;7.23;;
13660;SDS011;6903;49.480;11.102;2023-04-07T06:04:20;10.13;;;7.47;;
13660;SDS011;6903;49.480;11.102;2023-04-07T06:06:45;8.57;;;7.13;;
13660;SDS011;6903;49.480;11.102;2023-04-07T06:09:11;9.63;;;7.67;;
13660;SDS011;6903;49.480;11.102;2023-04-07T06:11:36;8.30;;;6.90;;
13660;SDS011;6903;49.480;11.102;2023-04-07T06:14:02;9.17;;;7.40;;
13660;SDS011;6903;49.480;11.102;2023-04-07T06:16:27;9.77;;;7.50;;
13660;SDS011;6903;49.480;11.102;2023-04-07T06:18:52;11.63;;;7.70;;
13660;SDS011;6903;49.480;11.102;2023-04-07T06:21:17;10.03;;;7.23;;
13660;SDS011;6903;49.480;11.102;2023-04-07T06:23:43;9.77;;;7.60;;
13660;SDS011;6903;49.480;11.102;2023-04-07T06:26:09;9.13;;;7.70;;
13660;SDS011;6903;49.480;11.102;2023-04-07T06:28:36;10.47;;;7.47;;
13660;SDS011;6903;49.480;11.102;2023-04-07T06:31:01;11.93;;;7.97;;
13660;SDS011;6903;49.480;11.102;2023-04-07T06:33:26;9.33;;;7.70;;
13660;SDS011;6903;49.480;11.102;2023-04-07T06:35:52;9.73;;;7.47;;
13660;SDS011;6903;49.480;11.102;2023-04-07T06:38:18;8.37;;;7.57;;
13660;SDS011;6903;49.480;11.102;2023-04-07T06:40:43;9.33;;;7.40;;
13660;SDS011;6903;49.480;11.102;2023-04-07T06:43:08;9.00;;;7.30;;
13660;SDS011;6903;49.480;11.102;2023-04-07T06:45:34;8.63;;;7.63;;
13660;SDS011;6903;49.480;11.102;2023-04-07T06:47:59;9.83;;;8.17;;
13660;SDS011;6903;49.480;11.102;2023-04-07T06:50:25;10.47;;;9.17;;
13660;SDS011;6903;49.480;11.102;2023-04-07T06:52:50;10.90;;;8.90;;
13660;SDS011;6903;49.480;11.102;2023-04-07T06:55:16;9.23;;;8.17;;
13660;SDS011;6903;49.480;11.102;2023-04-07T06:57:41;9.53;;;8.27;;
13660;SDS011;6903;49.480;11.102;2023-04-07T07:00:07;9.73;;;8.00;;
13660;SDS011;6903;49.480;11.102;2023-04-07T07:02:33;10.50;;;8.63;;
13660;SDS011;6903;49.480;11.102;2023-04-07T07:04:58;9.87;;;8.20;;
13660;SDS011;6903;49.480;11.102;2023-04-07T07:07:24;9.07;;;7.97;;
13660;SDS011;6903;49.480;11.102;2023-04-07T07:09:49;10.00;;;8.33;;
13660;SDS011;6903;49.480;11.102;2023-04-07T07:12:15;9.83;;;8.33;;
13660;SDS011;6903;49.480;11.102;2023-04-07T07:14:41;9.70;;;8.67;;
13660;SDS011;6903;49.480;11.102;2023-04-07T07:17:07;11.13;;;8.80;;
13660;SDS011;6903;49.480;11.102;2023-04-07T07:19:32;9.97;;;8.93;;
13660;SDS011;6903;49.480;11.102;2023-04-07T07:21:58;9.40;;;8.40;;
13660;SDS011;6903;49.480;11.102;2023-04-07T07:24:23;9.80;;;8.77;;
13660;SDS011;6903;49.480;11.102;2023-04-07T07:26:48;10.90;;;8.50;;
13660;SDS011;6903;49.480;11.102;2023-04-07T07:29:14;10.97;;;8.87;;
13660;SDS011;6903;49.480;11.102;2023-04-07T07:31:39;9.97;;;8.40;;
13660;SDS011;6903;49.480;11.102;2023-04-07T07:34:05;9.93;;;8.43;;
13660;SDS011;6903;49.480;11.102;2023-04-07T07:36:30;11.77;;;9.33;;
13660;SDS011;6903;49.480;11.102;2023-04-07T07:38:56;10.37;;;8.73;;
13660;SDS011;6903;49.480;11.102;2023-04-07T07:41:21;13.10;;;9.20;;
13660;SDS011;6903;49.480;11.102;2023-04-07T07:43:47;9.30;;;8.27;;
13660;SDS011;6903;49.480;11.102;2023-04-07T07:46:12;10.43;;;8.60;;
13660;SDS011;6903;49.480;11.102;2023-04-07T07:48:37;11.83;;;9.37;;
13660;SDS011;6903;49.480;11.102;2023-04-07T07:51:03;10.77;;;9.20;;
13660;SDS011;6903;49.480;11.102;2023-04-07T07:53:28;11.30;;;9.63;;
13660;SDS011;6903;49.480;11.102;2023-04-07T07:55:53;12.77;;;9.70;;
13660;SDS011;6903;49.480;11.102;2023-04-07T07:58:20;10.10;;;9.00;;
13660;SDS011;6903;49.480;11.102;2023-04-07T08:00:45;11.30;;;9.33;;
13660;SDS011;6903;49.480;11.102;2023-04-07T08:03:11;10.97;;;8.73;;
13660;SDS011;6903;49.480;11.102;2023-04-07T08:05:36;12.57;;;9.23;;
13660;SDS011;6903;49.480;11.102;2023-04-07T08:08:01;10.30;;;8.90;;
13660;SDS011;6903;49.480;11.102;2023-04-07T08:10:27;10.17;;;8.77;;
13660;SDS011;6903;49.480;11.102;2023-04-07T08:12:52;11.03;;;8.47;;
13660;SDS011;6903;49.480;11.102;2023-04-07T08:15:18;10.20;;;9.13;;
13660;SDS011;6903;49.480;11.102;2023-04-07T08:17:43;9.53;;;8.50;;
13660;SDS011;6903;49.480;11.102;2023-04-07T08:20:09;10.03;;;8.90;;
13660;SDS011;6903;49.480;11.102;2023-04-07T08:22:35;20.27;;;9.30;;
13660;SDS011;6903;49.480;11.102;2023-04-07T08:25:01;10.30;;;8.87;;
13660;SDS011;6903;49.480;11.102;2023-04-07T08:27:26;10.03;;;9.00;;
13660;SDS011;6903;49.480;11.102;2023-04-07T08:29:59;10.40;;;8.40;;
13660;SDS011;6903;49.480;11.102;2023-04-07T08:32:35;9.67;;;8.67;;
13660;SDS011;6903;49.480;11.102;2023-04-07T08:35:02;9.93;;;8.50;;
13660;SDS011;6903;49.480;11.102;2023-04-07T08:37:28;11.77;;;8.47;;
13660;SDS011;6903;49.480;11.102;2023-04-07T08:39:54;9.37;;;8.37;;
13660;SDS011;6903;49.480;11.102;2023-04-07T08:42:20;11.27;;;8.83;;
13660;SDS011;6903;49.480;11.102;2023-04-07T08:44:51;9.63;;;8.43;;
13660;SDS011;6903;49.480;11.102;2023-04-07T08:47:17;9.10;;;8.13;;
13660;SDS011;6903;49.480;11.102;2023-04-07T08:49:44;11.05;;;8.20;;
13660;SDS011;6903;49.480;11.102;2023-04-07T08:52:12;10.52;;;8.82;;
13660;SDS011;6903;49.480;11.102;2023-04-07T08:54:40;10.80;;;8.63;;
13660;SDS011;6903;49.480;11.102;2023-04-07T08:57:06;9.50;;;8.35;;
13660;SDS011;6903;49.480;11.102;2023-04-07T08:59:32;11.85;;;7.78;;
13660;SDS011;6903;49.480;11.102;2023-04-07T09:01:59;9.30;;;8.27;;
13660;SDS011;6903;49.480;11.102;2023-04-07T09:04:24;12.10;;;8.82;;
13660;SDS011;6903;49.480;11.102;2023-04-07T09:06:51;12.13;;;8.48;;
13660;SDS011;6903;49.480;11.102;2023-04-07T09:09:16;16.73;;;9.00;;
13660;SDS011;6903;49.480;11.102;2023-04-07T09:11:42;12.77;;;8.63;;
13660;SDS011;6903;49.480;11.102;2023-04-07T09:14:07;10.77;;;8.80;;
13660;SDS011;6903;49.480;11.102;2023-04-07T09:16:32;9.60;;;8.63;;
13660;SDS011;6903;49.480;11.102;2023-04-07T09:18:58;11.40;;;8.73;;
13660;SDS011;6903;49.480;11.102;2023-04-07T09:21:23;12.82;;;8.82;;
13660;SDS011;6903;49.480;11.102;2023-04-07T09:23:49;8.68;;;7.82;;
13660;SDS011;6903;49.480;11.102;2023-04-07T09:26:22;10.32;;;8.80;;
13660;SDS011;6903;49.480;11.102;2023-04-07T09:28:50;11.38;;;8.63;;
13660;SDS011;6903;49.480;11.102;2023-04-07T09:31:17;13.68;;;8.40;;
13660;SDS011;6903;49.480;11.102;2023-04-07T09:33:43;10.13;;;8.57;;
13660;SDS011;6903;49.480;11.102;2023-04-07T09:36:08;10.27;;;8.32;;
13660;SDS011;6903;49.480;11.102;2023-04-07T09:38:35;10.82;;;8.32;;
13660;SDS011;6903;49.480;11.102;2023-04-07T09:41:05;10.43;;;8.30;;
13660;SDS011;6903;49.480;11.102;2023-04-07T09:43:34;9.50;;;8.48;;
13660;SDS011;6903;49.480;11.102;2023-04-07T09:46:09;9.73;;;8.43;;
13660;SDS011;6903;49.480;11.102;2023-04-07T09:48:35;9.95;;;8.70;;
13660;SDS011;6903;49.480;11.102;2023-04-07T09:51:08;11.80;;;9.82;;
13660;SDS011;6903;49.480;11.102;2023-04-07T09:53:51;10.07;;;9.07;;
13660;SDS011;6903;49.480;11.102;2023-04-07T09:56:20;14.10;;;9.35;;
13660;SDS011;6903;49.480;11.102;2023-04-07T09:58:49;11.95;;;8.80;;
13660;SDS011;6903;49.480;11.102;2023-04-07T10:01:19;14.32;;;9.10;;
13660;SDS011;6903;49.480;11.102;2023-04-07T10:03:46;11.55;;;8.57;;
13660;SDS011;6903;49.480;11.102;2023-04-07T10:06:11;10.13;;;9.07;;
13660;SDS011;6903;49.480;11.102;2023-04-07T10:08:39;11.15;;;9.05;;
13660;SDS011;6903;49.480;11.102;2023-04-07T10:11:06;15.18;;;9.88;;
13660;SDS011;6903;49.480;11.102;2023-04-07T10:13:33;12.07;;;9.43;;
13660;SDS011;6903;49.480;11.102;2023-04-07T10:16:02;11.75;;;8.82;;
13660;SDS011;6903;49.480;11.102;2023-04-07T10:18:30;11.00;;;9.05;;
13660;SDS011;6903;49.480;11.102;2023-04-07T10:20:58;10.63;;;9.23;;
13660;SDS011;6903;49.480;11.102;2023-04-07T10:26:20;11.40;;;9.05;;
13660;SDS011;6903;49.480;11.102;2023-04-07T10:28:51;10.50;;;9.07;;
13660;SDS011;6903;49.480;11.102;2023-04-07T10:31:20;9.80;;;8.80;;
13660;SDS011;6903;49.480;11.102;2023-04-07T10:33:50;10.85;;;9.50;;
13660;SDS011;6903;49.480;11.102;2023-04-07T10:36:17;10.30;;;9.02;;
13660;SDS011;6903;49.480;11.102;2023-04-07T10:41:34;11.50;;;9.40;;
13660;SDS011;6903;49.480;11.102;2023-04-07T10:44:04;11.43;;;9.50;;
13660;SDS011;6903;49.480;11.102;2023-04-07T10:49:12;10.50;;;9.35;;
13660;SDS011;6903;49.480;11.102;2023-04-07T10:51:39;10.55;;;9.45;;
13660;SDS011;6903;49.480;11.102;2023-04-07T10:54:13;10.80;;;9.70;;
13660;SDS011;6903;49.480;11.102;2023-04-07T10:57:25;10.70;;;9.60;;
13660;SDS011;6903;49.480;11.102;2023-04-07T10:59:26;10.88;;;9.52;;
13660;SDS011;6903;49.480;11.102;2023-04-07T11:02:28;10.20;;;9.07;;
13660;SDS011;6903;49.480;11.102;2023-04-07T11:04:53;9.38;;;8.48;;
13660;SDS011;6903;49.480;11.102;2023-04-07T11:07:18;11.20;;;8.40;;
13660;SDS011;6903;49.480;11.102;2023-04-07T11:10:08;10.43;;;9.18;;
13660;SDS011;6903;49.480;11.102;2023-04-07T11:12:35;9.63;;;8.52;;
13660;SDS011;6903;49.480;11.102;2023-04-07T11:15:15;11.40;;;9.35;;
13660;SDS011;6903;49.480;11.102;2023-04-07T11:17:41;10.27;;;9.20;;
13660;SDS011;6903;49.480;11.102;2023-04-07T11:20:06;10.98;;;9.88;;
13660;SDS011;6903;49.480;11.102;2023-04-07T11:22:32;11.20;;;10.02;;
13660;SDS011;6903;49.480;11.102;2023-04-07T11:24:59;10.48;;;9.43;;
13660;SDS011;6903;49.480;11.102;2023-04-07T11:27:25;11.55;;;9.52;;
13660;SDS011;6903;49.480;11.102;2023-04-07T11:29:52;10.55;;;9.45;;
13660;SDS011;6903;49.480;11.102;2023-04-07T11:32:21;10.70;;;9.60;;
13660;SDS011;6903;49.480;11.102;2023-04-07T11:34:53;10.93;;;8.90;;
13660;SDS011;6903;49.480;11.102;2023-04-07T11:37:20;11.02;;;9.90;;
13660;SDS011;6903;49.480;11.102;2023-04-07T11:39:52;10.45;;;9.38;;
13660;SDS011;6903;49.480;11.102;2023-04-07T11:42:33;11.02;;;9.85;;
13660;SDS011;6903;49.480;11.102;2023-04-07T11:44:59;9.82;;;8.82;;
13660;SDS011;6903;49.480;11.102;2023-04-07T11:47:34;10.02;;;9.00;;
13660;SDS011;6903;49.480;11.102;2023-04-07T11:50:04;10.52;;;8.88;;
13660;SDS011;6903;49.480;11.102;2023-04-07T11:52:43;10.95;;;9.85;;
13660;SDS011;6903;49.480;11.102;2023-04-07T11:55:16;10.43;;;9.43;;
13660;SDS011;6903;49.480;11.102;2023-04-07T11:57:45;11.25;;;10.15;;
13660;SDS011;6903;49.480;11.102;2023-04-07T12:00:12;10.63;;;9.63;;
13660;SDS011;6903;49.480;11.102;2023-04-07T12:02:38;10.77;;;9.60;;
13660;SDS011;6903;49.480;11.102;2023-04-07T12:05:04;10.77;;;9.68;;
13660;SDS011;6903;49.480;11.102;2023-04-07T12:07:29;10.15;;;9.13;;
13660;SDS011;6903;49.480;11.102;2023-04-07T12:09:55;11.25;;;9.75;;
13660;SDS011;6903;49.480;11.102;2023-04-07T12:12:25;10.13;;;9.13;;
13660;SDS011;6903;49.480;11.102;2023-04-07T12:14:52;9.80;;;8.80;;
13660;SDS011;6903;49.480;11.102;2023-04-07T12:17:21;10.75;;;9.57;;
13660;SDS011;6903;49.480;11.102;2023-04-07T12:19:51;10.65;;;9.50;;
13660;SDS011;6903;49.480;11.102;2023-04-07T12:22:17;8.82;;;7.80;;
13660;SDS011;6903;49.480;11.102;2023-04-07T12:24:43;10.27;;;9.05;;
13660;SDS011;6903;49.480;11.102;2023-04-07T12:27:08;10.02;;;9.02;;
13660;SDS011;6903;49.480;11.102;2023-04-07T12:29:34;10.40;;;9.40;;
13660;SDS011;6903;49.480;11.102;2023-04-07T12:32:00;9.65;;;8.73;;
13660;SDS011;6903;49.480;11.102;2023-04-07T12:34:25;10.55;;;8.93;;
13660;SDS011;6903;49.480;11.102;2023-04-07T12:36:51;10.30;;;9.30;;
13660;SDS011;6903;49.480;11.102;2023-04-07T12:39:16;10.73;;;9.48;;
13660;SDS011;6903;49.480;11.102;2023-04-07T12:41:42;9.90;;;8.98;;
13660;SDS011;6903;49.480;11.102;2023-04-07T12:44:09;10.18;;;9.18;;
13660;SDS011;6903;49.480;11.102;2023-04-07T12:46:35;11.18;;;9.77;;
13660;SDS011;6903;49.480;11.102;2023-04-07T12:49:00;11.40;;;9.82;;
13660;SDS011;6903;49.480;11.102;2023-04-07T12:51:25;11.32;;;10.15;;
13660;SDS011;6903;49.480;11.102;2023-04-07T12:53:51;10.68;;;9.68;;
13660;SDS011;6903;49.480;11.102;2023-04-07T12:56:18;10.70;;;9.70;;
13660;SDS011;6903;49.480;11.102;2023-04-07T12:58:43;11.75;;;10.20;;
13660;SDS011;6903;49.480;11.102;2023-04-07T13:01:08;11.30;;;10.20;;
13660;SDS011;6903;49.480;11.102;2023-04-07T13:03:34;10.50;;;9.40;;
13660;SDS011;6903;49.480;11.102;2023-04-07T13:06:00;11.15;;;10.00;;
13660;SDS011;6903;49.480;11.102;2023-04-07T13:08:28;11.82;;;10.48;;
13660;SDS011;6903;49.480;11.102;2023-04-07T13:10:54;14.77;;;12.60;;
13660;SDS011;6903;49.480;11.102;2023-04-07T13:13:20;11.88;;;10.68;;
13660;SDS011;6903;49.480;11.102;2023-04-07T13:15:45;11.85;;;10.65;;
13660;SDS011;6903;49.480;11.102;2023-04-07T13:18:10;10.52;;;9.50;;
13660;SDS011;6903;49.480;11.102;2023-04-07T13:20:36;11.80;;;10.52;;
13660;SDS011;6903;49.480;11.102;2023-04-07T13:23:02;11.35;;;9.63;;
13660;SDS011;6903;49.480;11.102;2023-04-07T13:25:27;12.43;;;10.45;;
13660;SDS011;6903;49.480;11.102;2023-04-07T13:27:52;12.43;;;10.43;;
13660;SDS011;6903;49.480;11.102;2023-04-07T13:30:18;12.40;;;9.93;;
13660;SDS011;6903;49.480;11.102;2023-04-07T13:32:43;12.75;;;10.93;;
13660;SDS011;6903;49.480;11.102;2023-04-07T13:35:08;12.43;;;11.23;;
13660;SDS011;6903;49.480;11.102;2023-04-07T13:37:34;11.60;;;10.40;;
13660;SDS011;6903;49.480;11.102;2023-04-07T13:39:59;12.07;;;10.23;;
13660;SDS011;6903;49.480;11.102;2023-04-07T13:42:24;11.88;;;10.70;;
13660;SDS011;6903;49.480;11.102;2023-04-07T13:44:50;12.07;;;10.88;;
13660;SDS011;6903;49.480;11.102;2023-04-07T13:47:18;11.52;;;10.40;;
13660;SDS011;6903;49.480;11.102;2023-04-07T13:49:47;12.13;;;10.93;;
13660;SDS011;6903;49.480;11.102;2023-04-07T13:52:13;12.18;;;10.80;;
13660;SDS011;6903;49.480;11.102;2023-04-07T13:54:39;11.45;;;10.25;;
13660;SDS011;6903;49.480;11.102;2023-04-07T13:57:04;11.95;;;10.73;;
13660;SDS011;6903;49.480;11.102;2023-04-07T13:59:30;12.75;;;10.98;;
13660;SDS011;6903;49.480;11.102;2023-04-07T14:01:55;11.50;;;10.40;;
13660;SDS011;6903;49.480;11.102;2023-04-07T14:04:21;11.70;;;10.50;;
13660;SDS011;6903;49.480;11.102;2023-04-07T14:06:46;11.02;;;10.02;;
13660;SDS011;6903;49.480;11.102;2023-04-07T14:09:12;11.60;;;10.50;;
13660;SDS011;6903;49.480;11.102;2023-04-07T14:11:37;11.30;;;10.15;;
13660;SDS011;6903;49.480;11.102;2023-04-07T14:14:03;10.88;;;9.77;;
13660;SDS011;6903;49.480;11.102;2023-04-07T14:16:28;10.68;;;9.60;;
13660;SDS011;6903;49.480;11.102;2023-04-07T14:18:54;11.15;;;10.05;;
13660;SDS011;6903;49.480;11.102;2023-04-07T14:21:20;11.40;;;10.27;;
13660;SDS011;6903;49.480;11.102;2023-04-07T14:23:45;11.30;;;10.10;;
13660;SDS011;6903;49.480;11.102;2023-04-07T14:26:11;11.90;;;10.60;;
13660;SDS011;6903;49.480;11.102;2023-04-07T14:28:37;12.15;;;10.50;;
13660;SDS011;6903;49.480;11.102;2023-04-07T14:31:02;11.65;;;10.45;;
13660;SDS011;6903;49.480;11.102;2023-04-07T14:33:27;11.13;;;10.13;;
13660;SDS011;6903;49.480;11.102;2023-04-07T14:35:53;10.73;;;9.55;;
13660;SDS011;6903;49.480;11.102;2023-04-07T14:38:18;12.27;;;10.25;;
13660;SDS011;6903;49.480;11.102;2023-04-07T14:40:48;11.07;;;9.95;;
13660;SDS011;6903;49.480;11.102;2023-04-07T14:43:13;10.63;;;9.45;;
13660;SDS011;6903;49.480;11.102;2023-04-07T14:45:39;10.15;;;9.07;;